sensor_id;sensor_type;location;lat;lon;timestamp;pressure;altitude;pressure_sealevel;temperature;humidity
10658;BME280;5377;43.276;26.930;2023-04-24T00:01:07;98953.47;;;9.23;100.00
10658;BME280;5377;43.276;26.930;2023-04-24T00:03:36;98954.50;;;9.29;100.00
10658;BME280;5377;43.276;26.930;2023-04-24T00:06:04;98936.81;;;9.21;100.00
10658;BME280;5377;43.276;26.930;2023-04-24T00:08:32;98940.94;;;9.30;100.00
10658;BME280;5377;43.276;26.930;2023-04-24T00:10:58;98939.06;;;9.24;100.00
10658;BME280;5377;43.276;26.930;2023-04-24T00:13:25;98941.78;;;9.31;100.00
10658;BME280;5377;43.276;26.930;2023-04-24T00:15:53;98942.56;;;9.25;100.00
10658;BME280;5377;43.276;26.930;2023-04-24T00:18:20;98932.25;;;9.15;100.00
10658;BME280;5377;43.276;26.930;2023-04-24T00:20:48;98938.03;;;9.19;100.00
10658;BME280;5377;43.276;26.930;2023-04-24T00:23:15;98941.28;;;9.14;100.00
10658;BME280;5377;43.276;26.930;2023-04-24T00:25:42;98930.59;;;9.07;100.00
10658;BME280;5377;43.276;26.930;2023-04-24T00:28:09;98928.63;;;8.95;100.00
10658;BME280;5377;43.276;26.930;2023-04-24T00:30:36;98932.94;;;8.89;100.00
10658;BME280;5377;43.276;26.930;2023-04-24T00:33:02;98933.72;;;8.83;100.00
10658;BME280;5377;43.276;26.930;2023-04-24T00:35:29;98931.19;;;8.68;100.00
10658;BME280;5377;43.276;26.930;2023-04-24T00:37:57;98934.88;;;8.67;100.00
10658;BME280;5377;43.276;26.930;2023-04-24T00:40:24;98923.44;;;8.52;100.00
10658;BME280;5377;43.276;26.930;2023-04-24T00:42:51;98926.97;;;8.59;100.00
10658;BME280;5377;43.276;26.930;2023-04-24T00:45:18;98926.56;;;8.56;100.00
10658;BME280;5377;43.276;26.930;2023-04-24T00:47:46;98935.16;;;8.51;100.00
10658;BME280;5377;43.276;26.930;2023-04-24T00:50:15;98922.81;;;8.50;100.00
10658;BME280;5377;43.276;26.930;2023-04-24T00:52:41;98919.16;;;8.58;100.00
10658;BME280;5377;43.276;26.930;2023-04-24T00:55:10;98919.75;;;8.53;100.00
10658;BME280;5377;43.276;26.930;2023-04-24T00:57:37;98929.66;;;8.59;100.00
10658;BME280;5377;43.276;26.930;2023-04-24T01:00:05;98931.47;;;8.52;100.00
10658;BME280;5377;43.276;26.930;2023-04-24T01:02:36;98922.91;;;8.63;100.00
10658;BME280;5377;43.276;26.930;2023-04-24T01:05:06;98915.88;;;8.56;100.00
10658;BME280;5377;43.276;26.930;2023-04-24T01:07:33;98911.31;;;8.50;100.00
10658;BME280;5377;43.276;26.930;2023-04-24T01:10:01;98923.75;;;8.36;100.00
10658;BME280;5377;43.276;26.930;2023-04-24T01:12:29;98924.78;;;8.35;100.00
10658;BME280;5377;43.276;26.930;2023-04-24T01:14:56;98927.28;;;8.43;100.00
10658;BME280;5377;43.276;26.930;2023-04-24T01:17:23;98922.44;;;8.53;100.00
10658;BME280;5377;43.276;26.930;2023-04-24T01:19:50;98923.22;;;8.47;100.00
10658;BME280;5377;43.276;26.930;2023-04-24T01:22:20;98924.38;;;8.38;100.00
10658;BME280;5377;43.276;26.930;2023-04-24T01:24:47;98924.66;;;8.28;100.00
10658;BME280;5377;43.276;26.930;2023-04-24T01:27:14;98916.59;;;8.22;100.00
10658;BME280;5377;43.276;26.930;2023-04-24T01:29:41;98918.88;;;8.25;100.00
10658;BME280;5377;43.276;26.930;2023-04-24T01:32:08;98920.44;;;8.12;100.00
10658;BME280;5377;43.276;26.930;2023-04-24T01:34:35;98920.03;;;8.16;100.00
10658;BME280;5377;43.276;26.930;2023-04-24T01:37:04;98917.91;;;8.04;100.00
10658;BME280;5377;43.276;26.930;2023-04-24T01:39:32;98863.00;;;7.67;100.00
10658;BME280;5377;43.276;26.930;2023-04-24T01:42:00;98915.81;;;8.00;100.00
10658;BME280;5377;43.276;26.930;2023-04-24T01:44:27;98921.34;;;7.98;100.00
10658;BME280;5377;43.276;26.930;2023-04-24T01:46:54;98918.59;;;7.92;100.00
10658;BME280;5377;43.276;26.930;2023-04-24T01:49:21;98913.59;;;7.82;100.00
10658;BME280;5377;43.276;26.930;2023-04-24T01:51:48;98918.59;;;7.92;100.00
10658;BME280;5377;43.276;26.930;2023-04-24T01:54:15;98910.28;;;7.80;100.00
10658;BME280;5377;43.276;26.930;2023-04-24T01:56:43;98906.94;;;7.71;100.00
10658;BME280;5377;43.276;26.930;2023-04-24T01:59:11;98907.75;;;7.72;100.00
10658;BME280;5377;43.276;26.930;2023-04-24T02:01:38;98914.97;;;7.78;100.00
10658;BME280;5377;43.276;26.930;2023-04-24T02:04:06;98901.53;;;7.86;100.00
10658;BME280;5377;43.276;26.930;2023-04-24T02:06:34;98904.00;;;7.88;100.00
10658;BME280;5377;43.276;26.930;2023-04-24T02:09:01;98896.69;;;7.75;100.00
10658;BME280;5377;43.276;26.930;2023-04-24T02:11:28;98910.59;;;7.70;100.00
10658;BME280;5377;43.276;26.930;2023-04-24T02:13:56;98903.25;;;7.72;100.00
10658;BME280;5377;43.276;26.930;2023-04-24T02:16:23;98910.66;;;7.77;100.00
10658;BME280;5377;43.276;26.930;2023-04-24T02:18:50;98901.16;;;7.68;100.00
10658;BME280;5377;43.276;26.930;2023-04-24T02:21:17;98892.78;;;7.71;100.00
10658;BME280;5377;43.276;26.930;2023-04-24T02:23:44;98897.84;;;7.66;100.00
10658;BME280;5377;43.276;26.930;2023-04-24T02:26:11;98895.72;;;7.61;100.00
10658;BME280;5377;43.276;26.930;2023-04-24T02:28:37;98893.41;;;7.73;100.00
10658;BME280;5377;43.276;26.930;2023-04-24T02:31:06;98905.28;;;7.70;100.00
10658;BME280;5377;43.276;26.930;2023-04-24T02:33:33;98890.50;;;7.68;100.00
10658;BME280;5377;43.276;26.930;2023-04-24T02:36:00;98895.03;;;7.53;100.00
10658;BME280;5377;43.276;26.930;2023-04-24T02:38:28;98899.59;;;7.59;100.00
10658;BME280;5377;43.276;26.930;2023-04-24T02:40:55;98896.75;;;7.60;100.00
10658;BME280;5377;43.276;26.930;2023-04-24T02:43:21;98892.88;;;7.63;100.00
10658;BME280;5377;43.276;26.930;2023-04-24T02:45:48;98904.28;;;7.57;100.00
10658;BME280;5377;43.276;26.930;2023-04-24T02:48:16;98895.66;;;7.55;100.00
10658;BME280;5377;43.276;26.930;2023-04-24T02:50:44;98899.72;;;7.50;100.00
10658;BME280;5377;43.276;26.930;2023-04-24T02:53:11;98882.84;;;7.43;100.00
10658;BME280;5377;43.276;26.930;2023-04-24T02:55:37;98879.94;;;7.38;100.00
10658;BME280;5377;43.276;26.930;2023-04-24T02:58:04;98891.41;;;7.39;100.00
10658;BME280;5377;43.276;26.930;2023-04-24T03:00:31;98888.19;;;7.43;100.00
10658;BME280;5377;43.276;26.930;2023-04-24T03:02:58;98892.88;;;7.41;100.00
10658;BME280;5377;43.276;26.930;2023-04-24T03:05:26;98899.59;;;7.37;100.00
10658;BME280;5377;43.276;26.930;2023-04-24T03:07:53;98886.38;;;7.29;100.00
10658;BME280;5377;43.276;26.930;2023-04-24T03:10:20;98898.69;;;7.30;100.00
10658;BME280;5377;43.276;26.930;2023-04-24T03:12:47;98900.06;;;7.26;100.00
10658;BME280;5377;43.276;26.930;2023-04-24T03:15:15;98909.69;;;7.27;100.00
10658;BME280;5377;43.276;26.930;2023-04-24T03:17:42;98891.88;;;7.28;100.00
10658;BME280;5377;43.276;26.930;2023-04-24T03:20:09;98901.22;;;7.38;100.00
10658;BME280;5377;43.276;26.930;2023-04-24T03:22:37;98899.13;;;7.34;100.00
10658;BME280;5377;43.276;26.930;2023-04-24T03:25:05;98893.00;;;7.33;100.00
10658;BME280;5377;43.276;26.930;2023-04-24T03:27:33;98897.94;;;7.22;100.00
10658;BME280;5377;43.276;26.930;2023-04-24T03:30:00;98906.31;;;7.18;100.00
10658;BME280;5377;43.276;26.930;2023-04-24T03:32:27;98908.53;;;7.15;100.00
10658;BME280;5377;43.276;26.930;2023-04-24T03:34:54;98903.56;;;7.12;100.00
10658;BME280;5377;43.276;26.930;2023-04-24T03:37:21;98904.66;;;7.17;100.00
10658;BME280;5377;43.276;26.930;2023-04-24T03:39:49;98909.16;;;7.17;100.00
10658;BME280;5377;43.276;26.930;2023-04-24T03:42:16;98911.00;;;7.31;100.00
10658;BME280;5377;43.276;26.930;2023-04-24T03:44:42;98903.34;;;7.28;100.00
10658;BME280;5377;43.276;26.930;2023-04-24T03:47:09;98909.69;;;7.27;100.00
10658;BME280;5377;43.276;26.930;2023-04-24T03:49:36;98902.00;;;7.32;100.00
10658;BME280;5377;43.276;26.930;2023-04-24T03:52:03;98908.59;;;7.36;100.00
10658;BME280;5377;43.276;26.930;2023-04-24T03:54:30;98906.94;;;7.35;100.00
10658;BME280;5377;43.276;26.930;2023-04-24T03:56:58;98908.09;;;7.47;100.00
10658;BME280;5377;43.276;26.930;2023-04-24T03:59:25;98912.03;;;7.51;100.00
10658;BME280;5377;43.276;26.930;2023-04-24T04:01:52;98906.13;;;7.56;100.00
10658;BME280;5377;43.276;26.930;2023-04-24T04:04:18;98909.78;;;7.70;100.00
10658;BME280;5377;43.276;26.930;2023-04-24T04:06:45;98912.69;;;7.75;100.00
10658;BME280;5377;43.276;26.930;2023-04-24T04:09:13;98903.31;;;7.79;100.00
10658;BME280;5377;43.276;26.930;2023-04-24T04:11:40;98902.16;;;7.88;100.00
10658;BME280;5377;43.276;26.930;2023-04-24T04:14:08;98902.47;;;8.00;100.00
10658;BME280;5377;43.276;26.930;2023-04-24T04:16:34;98905.50;;;8.18;100.00
10658;BME280;5377;43.276;26.930;2023-04-24T04:19:02;98908.25;;;8.31;100.00
10658;BME280;5377;43.276;26.930;2023-04-24T04:21:29;98915.78;;;8.42;100.00
10658;BME280;5377;43.276;26.930;2023-04-24T04:23:56;98903.91;;;8.45;100.00
10658;BME280;5377;43.276;26.930;2023-04-24T04:26:23;98905.03;;;8.64;100.00
10658;BME280;5377;43.276;26.930;2023-04-24T04:28:51;98899.97;;;8.69;100.00
10658;BME280;5377;43.276;26.930;2023-04-24T04:31:19;98902.66;;;8.75;100.00
10658;BME280;5377;43.276;26.930;2023-04-24T04:33:46;98904.38;;;8.90;100.00
10658;BME280;5377;43.276;26.930;2023-04-24T04:36:13;98898.44;;;8.94;100.00
10658;BME280;5377;43.276;26.930;2023-04-24T04:38:39;98886.00;;;9.08;100.00
10658;BME280;5377;43.276;26.930;2023-04-24T04:41:08;98892.41;;;9.20;100.00
10658;BME280;5377;43.276;26.930;2023-04-24T04:43:35;98887.91;;;9.34;100.00
10658;BME280;5377;43.276;26.930;2023-04-24T04:46:01;98892.47;;;9.40;100.00
10658;BME280;5377;43.276;26.930;2023-04-24T04:48:30;98890.44;;;9.42;100.00
10658;BME280;5377;43.276;26.930;2023-04-24T04:50:58;98897.84;;;9.53;100.00
10658;BME280;5377;43.276;26.930;2023-04-24T04:53:24;98890.47;;;9.62;100.00
10658;BME280;5377;43.276;26.930;2023-04-24T04:55:51;98897.50;;;9.76;100.00
10658;BME280;5377;43.276;26.930;2023-04-24T04:58:18;98888.00;;;9.60;100.00
10658;BME280;5377;43.276;26.930;2023-04-24T05:00:45;98896.06;;;9.87;100.00
10658;BME280;5377;43.276;26.930;2023-04-24T05:03:12;98888.47;;;9.97;100.00
10658;BME280;5377;43.276;26.930;2023-04-24T05:05:40;98886.41;;;10.06;100.00
10658;BME280;5377;43.276;26.930;2023-04-24T05:08:07;98885.59;;;10.05;100.00
10658;BME280;5377;43.276;26.930;2023-04-24T05:10:34;98881.53;;;10.22;100.00
10658;BME280;5377;43.276;26.930;2023-04-24T05:13:02;98879.66;;;10.29;100.00
10658;BME280;5377;43.276;26.930;2023-04-24T05:15:29;98872.25;;;10.31;100.00
10658;BME280;5377;43.276;26.930;2023-04-24T05:17:56;98876.75;;;10.38;100.00
10658;BME280;5377;43.276;26.930;2023-04-24T05:20:22;98870.59;;;10.50;100.00
10658;BME280;5377;43.276;26.930;2023-04-24T05:22:51;98869.50;;;10.65;100.00
10658;BME280;5377;43.276;26.930;2023-04-24T05:25:18;98861.66;;;10.70;100.00
10658;BME280;5377;43.276;26.930;2023-04-24T05:27:45;98881.25;;;10.77;100.00
10658;BME280;5377;43.276;26.930;2023-04-24T05:30:12;98870.91;;;10.87;100.00
10658;BME280;5377;43.276;26.930;2023-04-24T05:32:39;98869.47;;;10.91;100.00
10658;BME280;5377;43.276;26.930;2023-04-24T05:35:07;98859.06;;;11.08;100.00
10658;BME280;5377;43.276;26.930;2023-04-24T05:37:33;98854.53;;;11.08;100.00
10658;BME280;5377;43.276;26.930;2023-04-24T05:40:02;98860.34;;;10.99;100.00
10658;BME280;5377;43.276;26.930;2023-04-24T05:42:31;98852.28;;;11.05;100.00
10658;BME280;5377;43.276;26.930;2023-04-24T05:44:57;98849.38;;;11.13;100.00
10658;BME280;5377;43.276;26.930;2023-04-24T05:47:24;98850.56;;;11.24;100.00
10658;BME280;5377;43.276;26.930;2023-04-24T05:49:51;98843.00;;;11.14;99.99
10658;BME280;5377;43.276;26.930;2023-04-24T05:52:18;98849.50;;;11.32;100.00
10658;BME280;5377;43.276;26.930;2023-04-24T05:54:45;98846.72;;;11.51;100.00
10658;BME280;5377;43.276;26.930;2023-04-24T05:57:13;98846.88;;;11.56;100.00
10658;BME280;5377;43.276;26.930;2023-04-24T05:59:40;98855.09;;;11.62;100.00
10658;BME280;5377;43.276;26.930;2023-04-24T06:02:07;98847.81;;;11.69;100.00
10658;BME280;5377;43.276;26.930;2023-04-24T06:04:34;98850.78;;;11.92;100.00
10658;BME280;5377;43.276;26.930;2023-04-24T06:07:01;98852.38;;;12.00;99.99
10658;BME280;5377;43.276;26.930;2023-04-24T06:09:28;98847.00;;;12.00;97.63
10658;BME280;5377;43.276;26.930;2023-04-24T06:11:55;98847.41;;;12.03;98.19
10658;BME280;5377;43.276;26.930;2023-04-24T06:14:23;98856.81;;;12.12;98.38
10658;BME280;5377;43.276;26.930;2023-04-24T06:16:50;98852.38;;;12.25;98.04
10658;BME280;5377;43.276;26.930;2023-04-24T06:19:16;98858.81;;;12.42;99.69
10658;BME280;5377;43.276;26.930;2023-04-24T06:21:43;98856.06;;;12.48;98.40
10658;BME280;5377;43.276;26.930;2023-04-24T06:24:10;98845.59;;;12.65;96.23
10658;BME280;5377;43.276;26.930;2023-04-24T06:26:37;98852.38;;;12.68;88.19
10658;BME280;5377;43.276;26.930;2023-04-24T06:29:04;98847.91;;;12.80;86.85
10658;BME280;5377;43.276;26.930;2023-04-24T06:31:32;98840.97;;;12.91;82.87
10658;BME280;5377;43.276;26.930;2023-04-24T06:34:02;98845.75;;;12.89;81.05
10658;BME280;5377;43.276;26.930;2023-04-24T06:36:29;98847.41;;;12.90;81.27
10658;BME280;5377;43.276;26.930;2023-04-24T06:38:56;98830.88;;;13.04;80.56
10658;BME280;5377;43.276;26.930;2023-04-24T06:41:23;98833.97;;;13.38;77.82
10658;BME280;5377;43.276;26.930;2023-04-24T06:43:50;98838.34;;;13.51;78.47
10658;BME280;5377;43.276;26.930;2023-04-24T06:46:17;98834.53;;;13.58;76.84
10658;BME280;5377;43.276;26.930;2023-04-24T06:48:45;98832.69;;;13.70;75.49
10658;BME280;5377;43.276;26.930;2023-04-24T06:51:12;98831.88;;;13.70;76.04
10658;BME280;5377;43.276;26.930;2023-04-24T06:53:39;98834.63;;;13.93;75.59
10658;BME280;5377;43.276;26.930;2023-04-24T06:56:05;98829.31;;;13.87;73.57
10658;BME280;5377;43.276;26.930;2023-04-24T06:58:32;98837.78;;;14.02;72.54
10658;BME280;5377;43.276;26.930;2023-04-24T07:00:59;98829.25;;;14.05;73.67
10658;BME280;5377;43.276;26.930;2023-04-24T07:03:26;98831.13;;;14.16;73.96
10658;BME280;5377;43.276;26.930;2023-04-24T07:05:54;98829.28;;;14.28;73.70
10658;BME280;5377;43.276;26.930;2023-04-24T07:08:21;98821.19;;;14.52;72.63
10658;BME280;5377;43.276;26.930;2023-04-24T07:10:49;98830.00;;;14.59;70.65
10658;BME280;5377;43.276;26.930;2023-04-24T07:13:16;98824.84;;;14.69;71.98
10658;BME280;5377;43.276;26.930;2023-04-24T07:15:43;98824.94;;;14.51;71.66
10658;BME280;5377;43.276;26.930;2023-04-24T07:18:09;98832.06;;;14.80;72.09
10658;BME280;5377;43.276;26.930;2023-04-24T07:20:36;98828.91;;;14.95;70.35
10658;BME280;5377;43.276;26.930;2023-04-24T07:23:04;98827.13;;;15.01;69.79
10658;BME280;5377;43.276;26.930;2023-04-24T07:25:31;98823.19;;;15.20;70.13
10658;BME280;5377;43.276;26.930;2023-04-24T07:27:58;98825.78;;;15.43;70.78
10658;BME280;5377;43.276;26.930;2023-04-24T07:30:25;98814.09;;;15.66;67.31
10658;BME280;5377;43.276;26.930;2023-04-24T07:32:54;98815.41;;;15.80;65.81
10658;BME280;5377;43.276;26.930;2023-04-24T07:35:21;98817.91;;;15.99;64.76
10658;BME280;5377;43.276;26.930;2023-04-24T07:37:47;98818.94;;;16.14;63.54
10658;BME280;5377;43.276;26.930;2023-04-24T07:40:16;98806.84;;;16.00;63.66
10658;BME280;5377;43.276;26.930;2023-04-24T07:42:43;98807.22;;;16.26;64.40
10658;BME280;5377;43.276;26.930;2023-04-24T07:45:10;98810.81;;;16.48;63.74
10658;BME280;5377;43.276;26.930;2023-04-24T07:47:37;98819.97;;;16.47;61.80
10658;BME280;5377;43.276;26.930;2023-04-24T07:50:06;98798.22;;;16.37;60.98
10658;BME280;5377;43.276;26.930;2023-04-24T07:52:32;98814.56;;;16.47;60.85
10658;BME280;5377;43.276;26.930;2023-04-24T07:54:59;98814.16;;;16.72;60.27
10658;BME280;5377;43.276;26.930;2023-04-24T07:57:28;98808.94;;;16.87;58.79
10658;BME280;5377;43.276;26.930;2023-04-24T07:59:55;98801.94;;;17.35;57.45
10658;BME280;5377;43.276;26.930;2023-04-24T08:02:22;98814.94;;;17.65;56.61
10658;BME280;5377;43.276;26.930;2023-04-24T08:04:51;98800.34;;;18.30;54.35
10658;BME280;5377;43.276;26.930;2023-04-24T08:07:19;98813.91;;;18.30;53.19
10658;BME280;5377;43.276;26.930;2023-04-24T08:09:46;98791.09;;;18.68;52.95
10658;BME280;5377;43.276;26.930;2023-04-24T08:12:12;98802.78;;;18.68;53.03
10658;BME280;5377;43.276;26.930;2023-04-24T08:14:41;98788.09;;;19.27;52.53
10658;BME280;5377;43.276;26.930;2023-04-24T08:17:07;98792.44;;;19.38;51.50
10658;BME280;5377;43.276;26.930;2023-04-24T08:19:34;98785.09;;;19.28;50.70
10658;BME280;5377;43.276;26.930;2023-04-24T08:22:01;98777.88;;;19.59;49.60
10658;BME280;5377;43.276;26.930;2023-04-24T08:24:29;98772.19;;;19.97;48.63
10658;BME280;5377;43.276;26.930;2023-04-24T08:26:56;98776.50;;;20.28;48.37
10658;BME280;5377;43.276;26.930;2023-04-24T08:29:23;98780.28;;;20.58;47.64
10658;BME280;5377;43.276;26.930;2023-04-24T08:31:52;98775.94;;;20.46;46.63
10658;BME280;5377;43.276;26.930;2023-04-24T08:34:19;98770.50;;;20.51;46.13
10658;BME280;5377;43.276;26.930;2023-04-24T08:36:46;98777.81;;;20.61;47.13
10658;BME280;5377;43.276;26.930;2023-04-24T08:39:13;98767.09;;;20.90;45.72
10658;BME280;5377;43.276;26.930;2023-04-24T08:41:41;98768.56;;;21.32;45.08
10658;BME280;5377;43.276;26.930;2023-04-24T08:44:11;98766.69;;;21.27;44.09
10658;BME280;5377;43.276;26.930;2023-04-24T08:46:39;98761.25;;;20.42;45.66
10658;BME280;5377;43.276;26.930;2023-04-24T08:49:07;98759.03;;;20.65;45.89
10658;BME280;5377;43.276;26.930;2023-04-24T08:51:36;98767.13;;;20.80;45.36
10658;BME280;5377;43.276;26.930;2023-04-24T08:54:04;98732.63;;;20.65;45.12
10658;BME280;5377;43.276;26.930;2023-04-24T08:56:33;98751.03;;;21.43;44.47
10658;BME280;5377;43.276;26.930;2023-04-24T08:59:00;98752.13;;;21.42;44.17
10658;BME280;5377;43.276;26.930;2023-04-24T09:01:28;98762.34;;;21.65;43.26
10658;BME280;5377;43.276;26.930;2023-04-24T09:03:55;98749.84;;;21.59;43.86
10658;BME280;5377;43.276;26.930;2023-04-24T09:06:24;98754.00;;;21.52;43.74
10658;BME280;5377;43.276;26.930;2023-04-24T09:08:53;98770.81;;;21.09;44.63
10658;BME280;5377;43.276;26.930;2023-04-24T09:11:21;98746.94;;;21.79;44.23
10658;BME280;5377;43.276;26.930;2023-04-24T09:13:49;98763.97;;;21.27;44.46
10658;BME280;5377;43.276;26.930;2023-04-24T09:16:17;98754.94;;;21.71;43.57
10658;BME280;5377;43.276;26.930;2023-04-24T09:18:45;98747.28;;;21.73;42.92
10658;BME280;5377;43.276;26.930;2023-04-24T09:21:12;98752.13;;;21.42;42.96
10658;BME280;5377;43.276;26.930;2023-04-24T09:23:41;98746.03;;;21.11;43.41
10658;BME280;5377;43.276;26.930;2023-04-24T09:26:09;98742.25;;;21.02;44.36
10658;BME280;5377;43.276;26.930;2023-04-24T09:28:38;98733.28;;;21.51;43.48
10658;BME280;5377;43.276;26.930;2023-04-24T09:31:06;98740.91;;;21.54;43.06
10658;BME280;5377;43.276;26.930;2023-04-24T09:33:33;98730.31;;;22.15;42.81
10658;BME280;5377;43.276;26.930;2023-04-24T09:36:01;98749.16;;;22.40;41.75
10658;BME280;5377;43.276;26.930;2023-04-24T09:38:32;98726.31;;;22.02;42.72
10658;BME280;5377;43.276;26.930;2023-04-24T09:41:01;98727.00;;;21.89;41.88
10658;BME280;5377;43.276;26.930;2023-04-24T09:43:29;98719.28;;;21.96;41.92
10658;BME280;5377;43.276;26.930;2023-04-24T09:45:57;98715.41;;;22.02;41.02
10658;BME280;5377;43.276;26.930;2023-04-24T09:48:30;98721.66;;;22.08;41.83
10658;BME280;5377;43.276;26.930;2023-04-24T09:50:58;98716.06;;;22.23;41.76
10658;BME280;5377;43.276;26.930;2023-04-24T09:53:25;98723.06;;;22.53;40.83
10658;BME280;5377;43.276;26.930;2023-04-24T09:55:52;98708.81;;;22.61;40.46
10658;BME280;5377;43.276;26.930;2023-04-24T09:58:24;98701.41;;;22.86;41.11
10658;BME280;5377;43.276;26.930;2023-04-24T10:00:53;98694.78;;;22.20;40.41
10658;BME280;5377;43.276;26.930;2023-04-24T10:03:22;98702.84;;;22.06;41.78
10658;BME280;5377;43.276;26.930;2023-04-24T10:05:51;98696.03;;;22.57;40.87
10658;BME280;5377;43.276;26.930;2023-04-24T10:08:19;98697.38;;;22.78;41.00
10658;BME280;5377;43.276;26.930;2023-04-24T10:10:46;98689.34;;;22.68;40.42
10658;BME280;5377;43.276;26.930;2023-04-24T10:13:14;98697.13;;;22.03;41.52
10658;BME280;5377;43.276;26.930;2023-04-24T10:15:42;98690.66;;;21.65;42.08
10658;BME280;5377;43.276;26.930;2023-04-24T10:18:10;98701.50;;;22.04;41.91
10658;BME280;5377;43.276;26.930;2023-04-24T10:20:39;98690.34;;;22.29;41.54
10658;BME280;5377;43.276;26.930;2023-04-24T10:23:06;98692.53;;;22.27;41.16
10658;BME280;5377;43.276;26.930;2023-04-24T10:25:34;98686.25;;;22.75;40.92
10658;BME280;5377;43.276;26.930;2023-04-24T10:28:02;98692.13;;;22.63;39.68
10658;BME280;5377;43.276;26.930;2023-04-24T10:30:30;98686.09;;;22.66;39.59
10658;BME280;5377;43.276;26.930;2023-04-24T10:33:02;98690.81;;;22.79;38.88
10658;BME280;5377;43.276;26.930;2023-04-24T10:35:30;98687.63;;;22.96;38.71
10658;BME280;5377;43.276;26.930;2023-04-24T10:38:02;98673.00;;;22.87;38.99
10658;BME280;5377;43.276;26.930;2023-04-24T10:40:31;98671.38;;;23.61;39.58
10658;BME280;5377;43.276;26.930;2023-04-24T10:42:59;98672.28;;;23.51;38.75
10658;BME280;5377;43.276;26.930;2023-04-24T10:45:26;98669.09;;;23.12;37.74
10658;BME280;5377;43.276;26.930;2023-04-24T10:47:56;98672.28;;;22.76;38.73
10658;BME280;5377;43.276;26.930;2023-04-24T10:50:25;98692.84;;;21.29;39.21
10658;BME280;5377;43.276;26.930;2023-04-24T10:52:52;98684.81;;;21.03;40.35
10658;BME280;5377;43.276;26.930;2023-04-24T10:55:40;98672.34;;;21.70;39.04
10658;BME280;5377;43.276;26.930;2023-04-24T10:58:07;98664.22;;;21.94;37.74
10658;BME280;5377;43.276;26.930;2023-04-24T11:00:36;98667.50;;;22.68;37.83
10658;BME280;5377;43.276;26.930;2023-04-24T11:03:04;98657.00;;;22.99;36.02
10658;BME280;5377;43.276;26.930;2023-04-24T11:05:53;98675.97;;;22.66;36.21
10658;BME280;5377;43.276;26.930;2023-04-24T11:08:25;98660.16;;;22.87;36.14
10658;BME280;5377;43.276;26.930;2023-04-24T11:11:04;98667.38;;;22.54;37.42
10658;BME280;5377;43.276;26.930;2023-04-24T11:14:05;98665.66;;;22.63;37.48
10658;BME280;5377;43.276;26.930;2023-04-24T11:16:34;98655.25;;;22.18;37.03
10658;BME280;5377;43.276;26.930;2023-04-24T11:19:05;98658.13;;;21.73;38.21
10658;BME280;5377;43.276;26.930;2023-04-24T11:21:39;98667.16;;;21.40;38.26
10658;BME280;5377;43.276;26.930;2023-04-24T11:24:32;98660.31;;;21.42;38.43
10658;BME280;5377;43.276;26.930;2023-04-24T11:27:05;98670.00;;;21.20;38.95
10658;BME280;5377;43.276;26.930;2023-04-24T11:29:44;98668.22;;;20.50;40.26
10658;BME280;5377;43.276;26.930;2023-04-24T11:32:18;98663.91;;;20.29;41.02
10658;BME280;5377;43.276;26.930;2023-04-24T11:34:49;98669.34;;;20.29;41.10
10658;BME280;5377;43.276;26.930;2023-04-24T11:37:17;98664.72;;;20.30;41.92
10658;BME280;5377;43.276;26.930;2023-04-24T11:39:44;98670.97;;;20.30;41.70
10658;BME280;5377;43.276;26.930;2023-04-24T11:42:14;98677.59;;;19.88;43.20
10658;BME280;5377;43.276;26.930;2023-04-24T11:44:41;98684.09;;;19.37;44.48
10658;BME280;5377;43.276;26.930;2023-04-24T11:47:08;98683.50;;;19.04;46.25
10658;BME280;5377;43.276;26.930;2023-04-24T11:49:36;98681.31;;;18.91;47.48
10658;BME280;5377;43.276;26.930;2023-04-24T11:52:04;98681.06;;;18.97;48.79
10658;BME280;5377;43.276;26.930;2023-04-24T11:54:32;98681.84;;;18.88;50.50
10658;BME280;5377;43.276;26.930;2023-04-24T11:57:03;98691.81;;;18.67;52.13
10658;BME280;5377;43.276;26.930;2023-04-24T11:59:35;98696.69;;;18.65;52.94
10658;BME280;5377;43.276;26.930;2023-04-24T12:02:02;98698.53;;;18.59;54.68
10658;BME280;5377;43.276;26.930;2023-04-24T12:04:38;98714.16;;;18.37;57.88
10658;BME280;5377;43.276;26.930;2023-04-24T12:07:05;98715.56;;;18.45;62.98
10658;BME280;5377;43.276;26.930;2023-04-24T12:09:42;98726.78;;;18.11;77.22
10658;BME280;5377;43.276;26.930;2023-04-24T12:12:11;98727.19;;;17.98;78.09
10658;BME280;5377;43.276;26.930;2023-04-24T12:14:47;98707.94;;;17.30;87.02
10658;BME280;5377;43.276;26.930;2023-04-24T12:17:14;98707.72;;;16.83;75.85
10658;BME280;5377;43.276;26.930;2023-04-24T12:19:45;98668.94;;;16.99;81.02
10658;BME280;5377;43.276;26.930;2023-04-24T12:22:12;98681.75;;;17.68;85.36
10658;BME280;5377;43.276;26.930;2023-04-24T12:24:59;98671.28;;;17.82;90.65
10658;BME280;5377;43.276;26.930;2023-04-24T12:27:26;98661.97;;;18.04;90.75
10658;BME280;5377;43.276;26.930;2023-04-24T12:29:53;98625.25;;;18.39;90.65
10658;BME280;5377;43.276;26.930;2023-04-24T12:32:22;98638.50;;;19.64;84.85
10658;BME280;5377;43.276;26.930;2023-04-24T12:34:50;98638.94;;;20.07;74.74
10658;BME280;5377;43.276;26.930;2023-04-24T12:37:17;98636.97;;;20.28;72.35
10658;BME280;5377;43.276;26.930;2023-04-24T12:39:59;98620.69;;;21.21;68.17
10658;BME280;5377;43.276;26.930;2023-04-24T12:42:27;98616.66;;;22.29;54.09
10658;BME280;5377;43.276;26.930;2023-04-24T12:44:58;98607.94;;;22.70;54.56
10658;BME280;5377;43.276;26.930;2023-04-24T12:47:26;98600.19;;;23.33;51.78
10658;BME280;5377;43.276;26.930;2023-04-24T12:49:53;98597.47;;;24.21;46.72
10658;BME280;5377;43.276;26.930;2023-04-24T12:52:21;98593.09;;;24.61;48.97
10658;BME280;5377;43.276;26.930;2023-04-24T12:54:49;98585.69;;;24.98;45.06
10658;BME280;5377;43.276;26.930;2023-04-24T12:57:17;98591.72;;;25.00;44.62
10658;BME280;5377;43.276;26.930;2023-04-24T12:59:44;98576.94;;;25.85;42.26
10658;BME280;5377;43.276;26.930;2023-04-24T13:02:11;98578.84;;;25.54;42.28
10658;BME280;5377;43.276;26.930;2023-04-24T13:04:38;98577.00;;;24.46;42.48